Columbus/Fort Benning, Georgia
Current Conditions -  °F | °C
As of 11:58 AM on Thursday 23 Oct 2014 (Local Time) from KLSF Reporting Station
Clear Clear  
Wind Chill: 62°   Ceiling: Unl
Heat Index: 62°   Visibility: 10mi
Dew Point: 48°   Wind: 2mph
Humidity: 60%   Direction: 310°NW
Pressure: 30.13"   Gusts: NA
Location:  32.34°N, 84.93°W
Report Text: KLSF 231558Z AUTO 31002KT 10SM CLR 17/09 A3013 RMK AO2 SLP206 T01670088
Loading
Personal Weather Stations






























Interactive Weather Map
Tropical Storm Tracking
New forecast layout! Learn more

10-Day Weather Forecast

Advertisements
Track Severe Weather on mobile